createdAt,value
2019-05-19T00:02:28.881Z,13.20
2019-05-19T00:04:57.776Z,13.70
2019-05-19T00:07:26.793Z,12.80
2019-05-19T00:09:55.601Z,13.87
2019-05-19T00:12:24.569Z,14.10
2019-05-19T00:14:53.803Z,13.83
2019-05-19T00:17:22.657Z,13.70
2019-05-19T00:19:51.516Z,14.53
2019-05-19T00:22:20.497Z,14.53
2019-05-19T00:24:50.312Z,14.47
2019-05-19T00:27:19.227Z,15.97
2019-05-19T00:29:48.063Z,15.10
2019-05-19T00:32:17.019Z,16.73
2019-05-19T00:34:45.821Z,15.07
2019-05-19T00:37:14.697Z,18.10
2019-05-19T00:39:43.568Z,19.50
2019-05-19T00:42:12.952Z,17.97
2019-05-19T00:44:41.874Z,18.73
2019-05-19T00:47:10.855Z,18.63
2019-05-19T00:49:41.573Z,17.40
2019-05-19T00:52:10.520Z,17.40
2019-05-19T00:54:39.399Z,18.03
2019-05-19T00:57:08.879Z,18.07
2019-05-19T00:59:38.384Z,17.70
2019-05-19T01:02:07.377Z,18.73
2019-05-19T01:04:36.208Z,18.70
2019-05-19T01:07:05.355Z,16.20
2019-05-19T01:09:34.443Z,17.40
2019-05-19T01:12:03.810Z,17.87
2019-05-19T01:14:32.800Z,17.43
2019-05-19T01:17:02.208Z,17.63
2019-05-19T01:19:31.365Z,19.60
2019-05-19T01:22:01.671Z,19.30
2019-05-19T01:24:31.116Z,18.40
2019-05-19T01:26:59.931Z,18.50
2019-05-19T01:29:28.840Z,18.83
2019-05-19T01:31:57.685Z,18.70
2019-05-19T01:34:26.994Z,18.37
2019-05-19T01:36:55.853Z,19.37
2019-05-19T01:39:24.817Z,22.10
2019-05-19T01:41:53.674Z,20.50
2019-05-19T01:44:22.516Z,19.17
2019-05-19T01:46:51.440Z,18.07
2019-05-19T01:49:20.616Z,20.77
2019-05-19T01:51:49.562Z,20.40
2019-05-19T01:54:18.532Z,22.30
2019-05-19T01:56:47.834Z,23.43
2019-05-19T01:59:16.662Z,20.73
2019-05-19T02:01:45.495Z,23.30
2019-05-19T02:04:14.402Z,20.77
2019-05-19T02:06:43.563Z,22.27
2019-05-19T02:09:12.501Z,22.43
2019-05-19T02:11:41.362Z,20.00
2019-05-19T02:14:10.369Z,21.17
2019-05-19T02:16:39.267Z,22.33
2019-05-19T02:19:08.543Z,23.20
2019-05-19T02:21:37.479Z,24.10
2019-05-19T02:24:06.464Z,21.47
2019-05-19T02:26:35.372Z,22.97
2019-05-19T02:29:04.482Z,23.60
2019-05-19T02:31:33.294Z,22.20
2019-05-19T02:34:03.304Z,21.80
2019-05-19T02:36:32.185Z,22.27
2019-05-19T02:39:00.992Z,21.80
2019-05-19T02:41:32.530Z,21.83
2019-05-19T02:44:03.394Z,26.30
2019-05-19T02:46:34.539Z,25.00
2019-05-19T02:49:04.531Z,26.77
2019-05-19T02:51:34.822Z,29.37
2019-05-19T02:54:05.914Z,29.57
2019-05-19T02:56:35.330Z,27.63
2019-05-19T02:59:04.623Z,29.10
2019-05-19T03:01:35.425Z,27.17
2019-05-19T03:04:04.267Z,30.97
2019-05-19T03:06:33.065Z,28.70
2019-05-19T03:09:05.685Z,30.30
2019-05-19T03:11:34.494Z,29.97
2019-05-19T03:14:03.359Z,26.67
2019-05-19T03:16:32.176Z,27.10
2019-05-19T03:19:01.348Z,30.30
2019-05-19T03:21:30.187Z,31.90
2019-05-19T03:23:59.018Z,31.60
2019-05-19T03:26:27.833Z,32.27
2019-05-19T03:28:57.017Z,33.20
2019-05-19T03:31:35.122Z,30.80
2019-05-19T03:34:04.486Z,37.57
2019-05-19T03:36:33.748Z,36.07
2019-05-19T03:39:02.591Z,35.50
2019-05-19T03:41:31.739Z,33.57
2019-05-19T03:44:00.924Z,35.27
2019-05-19T03:46:30.141Z,32.60
2019-05-19T03:48:59.017Z,33.77
2019-05-19T03:51:31.404Z,31.60
2019-05-19T03:53:58.359Z,32.60
2019-05-19T03:56:27.243Z,34.87
2019-05-19T03:58:56.031Z,32.10
2019-05-19T04:01:24.833Z,30.40
2019-05-19T04:03:53.780Z,34.03
2019-05-19T04:06:22.591Z,30.10
2019-05-19T04:08:51.485Z,34.30
2019-05-19T04:11:20.289Z,34.00
2019-05-19T04:13:49.161Z,33.03
2019-05-19T04:16:18.354Z,31.53
2019-05-19T04:18:47.203Z,31.97
2019-05-19T04:21:16.078Z,34.97
2019-05-19T04:23:45.048Z,31.17
2019-05-19T04:26:13.829Z,31.00
2019-05-19T04:28:43.027Z,30.17
2019-05-19T04:31:11.838Z,32.60
2019-05-19T04:33:41.017Z,30.93
2019-05-19T04:36:10.515Z,29.30
2019-05-19T04:38:39.323Z,30.60
2019-05-19T04:41:08.144Z,31.73
2019-05-19T04:43:36.948Z,31.80
2019-05-19T04:46:06.581Z,32.97
2019-05-19T04:48:35.831Z,31.77
2019-05-19T04:51:04.645Z,35.60
2019-05-19T04:53:33.624Z,33.90
2019-05-19T04:56:02.769Z,33.60
2019-05-19T04:58:31.631Z,32.20
2019-05-19T05:01:00.456Z,32.40
2019-05-19T05:03:29.283Z,34.20
2019-05-19T05:05:58.124Z,31.57
2019-05-19T05:08:30.443Z,31.90
2019-05-19T05:10:57.860Z,29.80
2019-05-19T05:13:26.696Z,30.70
2019-05-19T05:15:55.542Z,29.10
2019-05-19T05:18:24.712Z,31.37
2019-05-19T05:20:53.718Z,33.37
2019-05-19T05:23:22.541Z,29.60
2019-05-19T05:25:51.622Z,33.80
2019-05-19T05:28:20.788Z,31.43
2019-05-19T05:30:49.688Z,31.33
2019-05-19T05:33:18.810Z,29.57
2019-05-19T05:35:47.712Z,27.63
2019-05-19T05:38:16.856Z,28.73
2019-05-19T05:40:46.264Z,33.10
2019-05-19T05:43:15.096Z,33.47
2019-05-19T05:45:44.048Z,34.83
2019-05-19T05:48:13.811Z,37.00
2019-05-19T05:50:42.610Z,34.60
2019-05-19T05:53:11.589Z,33.70
2019-05-19T05:55:40.470Z,36.00
2019-05-19T05:58:09.549Z,34.13
2019-05-19T06:00:38.492Z,37.30
2019-05-19T06:03:07.410Z,34.53
2019-05-19T06:05:36.215Z,37.23
2019-05-19T06:08:05.168Z,35.43
2019-05-19T06:10:34.284Z,36.20
2019-05-19T06:13:03.174Z,34.97
2019-05-19T06:15:32.098Z,36.17
2019-05-19T06:18:00.974Z,36.77
2019-05-19T06:20:30.127Z,37.50
2019-05-19T06:22:59.209Z,36.00
2019-05-19T06:25:28.858Z,39.67
2019-05-19T06:27:57.788Z,37.67
2019-05-19T06:30:27.859Z,36.10
2019-05-19T06:32:57.703Z,38.50
2019-05-19T06:35:26.819Z,40.33
2019-05-19T06:37:55.811Z,37.50
2019-05-19T06:40:24.778Z,37.20
2019-05-19T06:42:53.784Z,36.20
2019-05-19T06:45:22.939Z,36.73
2019-05-19T06:47:52.148Z,38.17
2019-05-19T06:50:21.376Z,39.23
2019-05-19T06:52:50.299Z,40.37
2019-05-19T06:55:19.269Z,37.47
2019-05-19T06:57:48.499Z,41.10
2019-05-19T07:00:18.642Z,39.77
2019-05-19T07:02:48.031Z,40.17
2019-05-19T07:05:17.393Z,39.00
2019-05-19T07:07:46.190Z,41.43
2019-05-19T07:10:15.635Z,39.87
2019-05-19T07:12:44.524Z,37.47
2019-05-19T07:15:14.106Z,39.53
2019-05-19T07:17:42.915Z,37.07
2019-05-19T07:20:12.574Z,40.00
2019-05-19T07:22:41.974Z,40.43
2019-05-19T07:25:10.845Z,40.40
2019-05-19T07:27:39.924Z,41.17
2019-05-19T07:30:09.541Z,37.93
2019-05-19T07:32:38.743Z,42.00
2019-05-19T07:35:08.558Z,42.30
2019-05-19T07:37:38.060Z,40.27
2019-05-19T07:40:07.311Z,41.77
2019-05-19T07:42:36.677Z,40.30
2019-05-19T07:45:06.620Z,39.77
2019-05-19T07:47:35.460Z,39.03
2019-05-19T07:50:04.657Z,41.43
2019-05-19T07:52:33.882Z,43.33
2019-05-19T07:55:02.984Z,40.97
2019-05-19T07:57:32.281Z,42.50
2019-05-19T08:00:01.114Z,41.37
2019-05-19T08:02:30.312Z,39.37
2019-05-19T08:04:59.272Z,41.17
2019-05-19T08:07:28.767Z,38.20
2019-05-19T08:09:57.615Z,40.80
2019-05-19T08:12:26.735Z,38.97
2019-05-19T08:14:55.777Z,41.50
2019-05-19T08:17:26.006Z,40.50
2019-05-19T08:19:55.451Z,42.90
2019-05-19T08:22:24.392Z,40.10
2019-05-19T08:24:53.392Z,38.57
2019-05-19T08:27:22.297Z,41.27
2019-05-19T08:29:51.602Z,41.67
2019-05-19T08:32:20.538Z,40.80
2019-05-19T08:34:49.543Z,41.20
2019-05-19T08:37:18.432Z,39.83
2019-05-19T08:39:47.584Z,38.67
2019-05-19T08:42:17.233Z,36.97
2019-05-19T08:44:46.119Z,32.93
2019-05-19T08:47:15.544Z,34.03
2019-05-19T08:49:44.380Z,33.77
2019-05-19T08:52:14.133Z,37.70
2019-05-19T08:54:43.547Z,35.93
2019-05-19T08:57:12.431Z,37.90
2019-05-19T08:59:41.373Z,34.93
2019-05-19T09:02:23.955Z,34.20
2019-05-19T09:04:52.825Z,34.50
2019-05-19T09:07:22.128Z,34.03
2019-05-19T09:09:51.151Z,34.67
2019-05-19T09:12:20.329Z,35.47
2019-05-19T09:14:49.268Z,34.87
2019-05-19T09:17:18.128Z,35.27
2019-05-19T09:19:47.838Z,36.70
2019-05-19T09:22:16.716Z,34.47
2019-05-19T09:24:45.523Z,33.00
2019-05-19T09:27:14.419Z,36.03
2019-05-19T09:29:43.355Z,34.97
2019-05-19T09:32:12.972Z,33.97
2019-05-19T09:34:41.895Z,33.37
2019-05-19T09:37:10.700Z,30.93
2019-05-19T09:39:39.850Z,33.03
2019-05-19T09:42:08.729Z,32.80
2019-05-19T09:44:37.556Z,35.80
2019-05-19T09:47:07.174Z,33.87
2019-05-19T09:49:36.218Z,32.57
2019-05-19T09:52:06.491Z,32.30
2019-05-19T09:54:44.736Z,34.43
2019-05-19T09:57:06.540Z,35.10
2019-05-19T09:59:35.388Z,32.87
2019-05-19T10:02:04.699Z,32.63
2019-05-19T10:04:33.677Z,34.77
2019-05-19T10:07:04.526Z,34.87
2019-05-19T10:10:03.187Z,34.20
2019-05-19T10:12:32.470Z,35.40
2019-05-19T10:15:02.790Z,31.70
2019-05-19T10:17:31.907Z,34.77
2019-05-19T10:20:00.834Z,33.00
2019-05-19T10:22:30.183Z,35.00
2019-05-19T10:25:19.948Z,31.37
2019-05-19T10:27:29.693Z,31.77
2019-05-19T10:29:58.614Z,33.33
2019-05-19T10:32:27.641Z,29.67
2019-05-19T10:34:56.543Z,32.77
2019-05-19T10:37:25.443Z,32.10
2019-05-19T10:39:54.508Z,31.00
2019-05-19T10:42:23.432Z,33.13
2019-05-19T10:44:52.342Z,31.07
2019-05-19T10:47:21.857Z,30.47
2019-05-19T10:49:51.043Z,31.07
2019-05-19T10:52:19.984Z,27.67
2019-05-19T10:54:49.981Z,29.20
2019-05-19T10:57:18.850Z,29.50
2019-05-19T10:59:47.657Z,30.10
2019-05-19T11:02:17.080Z,28.47
2019-05-19T11:04:45.914Z,30.23
2019-05-19T11:07:15.263Z,31.97
2019-05-19T11:09:44.266Z,31.10
2019-05-19T11:12:13.192Z,31.07
2019-05-19T11:14:42.089Z,31.17
2019-05-19T11:17:11.459Z,29.20
2019-05-19T11:19:40.271Z,27.23
2019-05-19T11:22:09.598Z,28.93
2019-05-19T11:24:38.791Z,28.63
2019-05-19T11:27:10.070Z,26.80
2019-05-19T11:29:38.293Z,26.17
2019-05-19T11:32:07.280Z,28.37
2019-05-19T11:34:36.090Z,26.97
2019-05-19T11:37:07.292Z,25.60
2019-05-19T11:39:35.995Z,24.77
2019-05-19T11:42:04.932Z,23.90
2019-05-19T11:44:33.868Z,25.33
2019-05-19T11:47:02.751Z,34.13
2019-05-19T11:49:31.539Z,25.57
2019-05-19T11:52:00.545Z,29.10
2019-05-19T11:54:30.176Z,22.63
2019-05-19T11:56:59.157Z,24.17
2019-05-19T11:59:28.455Z,24.93
2019-05-19T12:01:57.297Z,24.70
2019-05-19T12:04:26.203Z,27.20
2019-05-19T12:06:55.047Z,26.97
2019-05-19T12:09:23.949Z,24.30
2019-05-19T12:11:52.855Z,26.10
2019-05-19T12:14:21.649Z,23.87
2019-05-19T12:16:50.781Z,27.23
2019-05-19T12:19:19.663Z,24.80
2019-05-19T12:21:48.661Z,26.07
2019-05-19T12:24:17.591Z,25.00
2019-05-19T12:26:47.061Z,25.90
2019-05-19T12:29:16.795Z,24.63
2019-05-19T12:31:45.590Z,23.47
2019-05-19T12:34:14.728Z,24.17
2019-05-19T12:36:43.632Z,25.07
2019-05-19T12:39:12.755Z,27.03
2019-05-19T12:41:42.039Z,26.33
2019-05-19T12:44:10.880Z,25.60
2019-05-19T12:46:40.142Z,22.10
2019-05-19T12:49:09.059Z,23.20
2019-05-19T12:51:38.124Z,22.60
2019-05-19T12:54:07.044Z,24.53
2019-05-19T12:56:39.633Z,21.73
2019-05-19T12:59:06.488Z,20.67
2019-05-19T13:01:35.456Z,20.43
2019-05-19T13:04:04.829Z,22.50
2019-05-19T13:06:33.659Z,21.70
2019-05-19T13:09:03.238Z,22.90
2019-05-19T13:11:32.183Z,20.67
2019-05-19T13:14:01.019Z,18.50
2019-05-19T13:16:30.264Z,19.80
2019-05-19T13:18:59.435Z,23.83
2019-05-19T13:21:28.774Z,21.27
2019-05-19T13:23:57.683Z,17.23
2019-05-19T13:26:26.642Z,22.77
2019-05-19T13:28:55.534Z,20.47
2019-05-19T13:31:24.407Z,19.50
2019-05-19T13:33:53.253Z,17.77
2019-05-19T13:36:22.505Z,16.87
2019-05-19T13:38:51.397Z,8.40
2019-05-19T13:41:20.362Z,2.30
2019-05-19T13:43:49.345Z,1.93
2019-05-19T13:46:18.248Z,2.33
2019-05-19T13:48:47.298Z,1.97
2019-05-19T13:51:16.140Z,1.70
2019-05-19T13:53:45.008Z,1.97
2019-05-19T13:56:14.996Z,2.60
2019-05-19T13:58:44.220Z,3.03
2019-05-19T14:01:27.590Z,1.70
2019-05-19T14:03:43.673Z,2.43
2019-05-19T14:06:13.041Z,2.60
2019-05-19T14:08:42.033Z,2.67
2019-05-19T14:11:10.856Z,3.43
2019-05-19T14:13:39.790Z,2.37
2019-05-19T14:16:08.913Z,3.53
2019-05-19T14:18:37.800Z,3.57
2019-05-19T14:21:06.777Z,4.07
2019-05-19T14:23:35.749Z,4.30
2019-05-19T14:26:04.741Z,3.27
2019-05-19T14:28:33.634Z,3.00
2019-05-19T14:31:02.819Z,2.30
2019-05-19T14:33:31.712Z,3.20
2019-05-19T14:36:00.589Z,4.03
2019-05-19T14:38:29.636Z,2.67
2019-05-19T14:40:58.539Z,3.20
2019-05-19T14:43:27.678Z,3.70
2019-05-19T14:45:56.717Z,3.07
2019-05-19T14:48:25.602Z,2.77
2019-05-19T14:50:54.410Z,2.60
2019-05-19T14:53:23.290Z,3.30
2019-05-19T14:55:52.096Z,3.10
2019-05-19T14:58:21.128Z,4.17
2019-05-19T15:00:50.369Z,4.60
2019-05-19T15:03:19.188Z,5.10
2019-05-19T15:05:48.046Z,6.17
2019-05-19T15:08:17.158Z,6.10
2019-05-19T15:10:46.149Z,5.33
2019-05-19T15:13:15.397Z,6.40
2019-05-19T15:15:44.246Z,7.10
2019-05-19T15:18:13.077Z,6.90
2019-05-19T15:20:41.961Z,8.33
2019-05-19T15:23:11.039Z,6.70
2019-05-19T15:25:39.866Z,5.73
2019-05-19T15:28:09.090Z,12.20
2019-05-19T15:30:38.105Z,7.83
2019-05-19T15:33:07.013Z,6.30
2019-05-19T15:35:36.311Z,6.47
2019-05-19T15:38:05.473Z,6.00
2019-05-19T15:40:34.354Z,5.40
2019-05-19T15:43:03.279Z,7.40
2019-05-19T15:45:32.228Z,5.87
2019-05-19T15:48:01.104Z,5.43
2019-05-19T15:50:30.002Z,5.70
2019-05-19T15:52:58.861Z,7.77
2019-05-19T15:55:28.141Z,6.00
2019-05-19T15:57:57.002Z,7.00
2019-05-19T16:00:25.961Z,6.90
2019-05-19T16:02:55.248Z,7.10
2019-05-19T16:05:24.103Z,5.20
2019-05-19T16:07:52.985Z,6.97
2019-05-19T16:10:22.050Z,8.60
2019-05-19T16:12:50.878Z,9.03
2019-05-19T16:15:19.864Z,7.40
2019-05-19T16:17:49.058Z,5.60
2019-05-19T16:20:18.228Z,6.77
2019-05-19T16:22:47.188Z,7.33
2019-05-19T16:25:17.359Z,6.77
2019-05-19T16:27:46.540Z,7.23
2019-05-19T16:30:16.100Z,6.37
2019-05-19T16:32:44.935Z,7.03
2019-05-19T16:35:13.903Z,7.97
2019-05-19T16:37:43.963Z,6.33
2019-05-19T16:40:13.481Z,7.87
2019-05-19T16:42:42.399Z,6.50
2019-05-19T16:45:13.025Z,4.60
2019-05-19T16:47:41.926Z,4.43
2019-05-19T16:50:12.415Z,5.23
2019-05-19T16:52:41.336Z,6.07
2019-05-19T16:55:21.307Z,5.00
2019-05-19T16:57:50.445Z,4.43
2019-05-19T17:00:20.124Z,5.93
2019-05-19T17:02:49.016Z,6.90
2019-05-19T17:05:18.277Z,7.17
2019-05-19T17:07:47.210Z,7.20
2019-05-19T17:10:16.324Z,6.73
2019-05-19T17:12:46.061Z,7.00
2019-05-19T17:15:15.818Z,7.50
2019-05-19T17:17:44.624Z,6.50
2019-05-19T17:20:14.461Z,7.90
2019-05-19T17:22:43.482Z,9.20
2019-05-19T17:25:12.989Z,7.83
2019-05-19T17:27:41.919Z,10.20
2019-05-19T17:30:12.881Z,10.30
2019-05-19T17:32:41.720Z,9.97
2019-05-19T17:35:11.382Z,11.40
2019-05-19T17:37:40.370Z,10.73
2019-05-19T17:40:10.266Z,12.10
2019-05-19T17:42:40.147Z,11.57
2019-05-19T17:45:10.465Z,10.00
2019-05-19T17:47:39.334Z,10.47
2019-05-19T17:50:09.278Z,10.50
2019-05-19T17:52:38.289Z,10.17
2019-05-19T17:55:08.104Z,10.27
2019-05-19T17:57:37.820Z,12.20
2019-05-19T18:00:10.165Z,11.17
2019-05-19T18:02:38.556Z,10.20
2019-05-19T18:05:07.797Z,9.83
2019-05-19T18:07:37.041Z,11.10
2019-05-19T18:10:06.713Z,11.60
2019-05-19T18:12:35.702Z,11.47
2019-05-19T18:15:05.190Z,13.10
2019-05-19T18:17:34.072Z,11.00
2019-05-19T18:20:03.226Z,11.30
2019-05-19T18:22:32.224Z,12.50
2019-05-19T18:25:01.032Z,11.57
2019-05-19T18:27:30.076Z,12.60
2019-05-19T18:29:59.216Z,13.07
2019-05-19T18:32:28.013Z,12.40
2019-05-19T18:34:56.888Z,12.57
2019-05-19T18:37:25.722Z,11.90
2019-05-19T18:39:54.855Z,11.50
2019-05-19T18:42:23.774Z,12.40
2019-05-19T18:44:52.634Z,12.57
2019-05-19T18:47:21.507Z,12.10
2019-05-19T18:49:50.819Z,12.87
2019-05-19T18:52:19.736Z,12.03
2019-05-19T18:54:50.504Z,13.57
2019-05-19T18:57:19.917Z,14.00
2019-05-19T18:59:48.837Z,14.23
2019-05-19T19:02:18.016Z,14.87
2019-05-19T19:04:46.876Z,14.93
2019-05-19T19:07:15.888Z,14.60
2019-05-19T19:09:44.847Z,12.33
2019-05-19T19:12:13.697Z,13.40
2019-05-19T19:14:42.573Z,13.00
2019-05-19T19:17:11.665Z,12.47
2019-05-19T19:19:40.544Z,13.63
2019-05-19T19:22:09.436Z,12.90
2019-05-19T19:24:38.732Z,15.97
2019-05-19T19:27:07.653Z,14.47
2019-05-19T19:29:36.794Z,13.50
2019-05-19T19:32:05.841Z,14.70
2019-05-19T19:34:35.010Z,14.90
2019-05-19T19:37:04.014Z,13.63
2019-05-19T19:39:33.187Z,14.17
2019-05-19T19:42:02.079Z,13.93
2019-05-19T19:44:31.087Z,12.67
2019-05-19T19:46:59.902Z,12.43
2019-05-19T19:49:28.791Z,13.10
2019-05-19T19:51:57.768Z,13.57
2019-05-19T19:54:26.585Z,14.43
2019-05-19T19:56:55.722Z,14.83
2019-05-19T19:59:24.603Z,14.10
2019-05-19T20:01:54.189Z,13.57
2019-05-19T20:04:23.779Z,14.83
2019-05-19T20:06:52.874Z,14.13
2019-05-19T20:09:21.991Z,12.97
2019-05-19T20:11:50.815Z,15.90
2019-05-19T20:14:20.111Z,14.70
2019-05-19T20:16:48.959Z,13.63
2019-05-19T20:19:17.950Z,14.37
2019-05-19T20:21:46.835Z,15.93
2019-05-19T20:24:15.728Z,16.50
2019-05-19T20:26:44.886Z,15.67
2019-05-19T20:29:13.862Z,16.30
2019-05-19T20:31:43.426Z,16.10
2019-05-19T20:34:12.501Z,15.50
2019-05-19T20:36:41.694Z,15.00
2019-05-19T20:39:10.546Z,18.10
2019-05-19T20:41:39.565Z,18.60
2019-05-19T20:44:08.494Z,17.30
2019-05-19T20:46:37.320Z,18.67
2019-05-19T20:49:06.241Z,16.47
2019-05-19T20:51:35.073Z,19.10
2019-05-19T20:54:03.951Z,16.90
2019-05-19T20:56:33.145Z,18.00
2019-05-19T20:59:02.046Z,18.17
2019-05-19T21:01:30.965Z,18.23
2019-05-19T21:03:59.829Z,16.83
2019-05-19T21:06:28.663Z,20.20
2019-05-19T21:08:57.944Z,18.10
2019-05-19T21:11:27.141Z,18.63
2019-05-19T21:13:55.948Z,19.80
2019-05-19T21:16:24.858Z,19.70
2019-05-19T21:18:53.725Z,19.07
2019-05-19T21:21:22.569Z,19.40
2019-05-19T21:23:51.520Z,19.13
2019-05-19T21:26:20.411Z,19.10
2019-05-19T21:28:49.302Z,21.93
2019-05-19T21:31:18.227Z,21.30
2019-05-19T21:33:47.446Z,20.30
2019-05-19T21:36:16.285Z,22.67
2019-05-19T21:38:45.092Z,22.20
2019-05-19T21:41:14.531Z,25.13
2019-05-19T21:43:43.340Z,23.30
2019-05-19T21:46:12.449Z,24.40
2019-05-19T21:48:41.332Z,24.23
2019-05-19T21:51:10.225Z,25.80
2019-05-19T21:53:39.031Z,26.13
2019-05-19T21:56:07.989Z,26.20
2019-05-19T21:58:36.896Z,27.90
2019-05-19T22:01:05.890Z,29.90
2019-05-19T22:03:34.843Z,30.00
2019-05-19T22:06:03.670Z,28.30
2019-05-19T22:08:32.652Z,31.00
2019-05-19T22:11:04.422Z,28.77
2019-05-19T22:13:32.163Z,31.00
2019-05-19T22:16:12.463Z,30.87
2019-05-19T22:18:31.540Z,28.77
2019-05-19T22:21:00.379Z,27.03
2019-05-19T22:23:29.264Z,30.17
2019-05-19T22:25:58.163Z,28.90
2019-05-19T22:28:27.481Z,28.90
2019-05-19T22:30:56.321Z,31.23
2019-05-19T22:33:25.674Z,32.53
2019-05-19T22:35:54.479Z,32.00
2019-05-19T22:38:23.382Z,32.67
2019-05-19T22:40:52.214Z,31.00
2019-05-19T22:43:21.100Z,32.47
2019-05-19T22:45:49.964Z,33.30
2019-05-19T22:48:18.950Z,33.37
2019-05-19T22:50:47.806Z,33.87
2019-05-19T22:53:16.686Z,33.30
2019-05-19T22:55:45.544Z,35.43
2019-05-19T22:58:14.419Z,34.50
2019-05-19T23:00:43.287Z,33.93
2019-05-19T23:03:12.278Z,32.33
2019-05-19T23:05:41.440Z,33.40
2019-05-19T23:08:10.285Z,35.27
2019-05-19T23:10:39.223Z,33.97
2019-05-19T23:13:08.444Z,36.90
2019-05-19T23:15:37.380Z,36.57
2019-05-19T23:18:06.273Z,40.90
2019-05-19T23:20:35.155Z,37.60
2019-05-19T23:23:04.032Z,39.27
2019-05-19T23:25:32.935Z,40.13
2019-05-19T23:28:01.773Z,38.67
2019-05-19T23:30:30.668Z,41.20
2019-05-19T23:32:59.575Z,44.37
2019-05-19T23:35:28.383Z,44.87
2019-05-19T23:37:57.534Z,46.00
2019-05-19T23:40:26.347Z,44.97
2019-05-19T23:42:55.182Z,46.83
2019-05-19T23:45:24.050Z,47.17
2019-05-19T23:47:52.850Z,49.50
2019-05-19T23:50:21.707Z,46.60
2019-05-19T23:52:50.511Z,46.40
2019-05-19T23:55:19.735Z,47.90
2019-05-19T23:57:48.640Z,49.83
